Time;durP1;ratioP1;P1;durP2;ratioP2;P2;SDS_P1;SDS_P2;PMS_P1;PMS_P2;Temp;Humidity;BMP_temperature;BMP_pressure;BME280_temperature;BME280_humidity;BME280_pressure;Samples;Min_cycle;Max_cycle;Signal;HPM_P1;HPM_P2
2021/09/10 00:00:53;;;;;;;0.25;0.25;;;;;;;23.82;57.89;101147.94;5012129;28;20026;-83
2021/09/10 00:03:19;;;;;;;0.10;0.10;;;;;;;23.79;58.35;101148.19;5014070;28;20457;-81
2021/09/10 00:05:46;;;;;;;0.57;0.57;;;;;;;23.80;58.24;101149.94;5013946;28;20030;-82
2021/09/10 00:08:12;;;;;;;0.10;0.10;;;;;;;23.81;58.45;101154.34;5014295;28;20481;-80
2021/09/10 00:10:39;;;;;;;0.30;0.30;;;;;;;23.83;58.49;101155.09;5010512;28;20018;-84
2021/09/10 00:13:06;;;;;;;0.10;0.10;;;;;;;23.82;58.79;101158.78;5013975;28;20385;-89
2021/09/10 00:15:39;;;;;;;0.10;0.10;;;;;;;23.85;58.59;101164.00;5013222;28;20039;-84
2021/09/10 00:18:05;;;;;;;0.38;0.38;;;;;;;23.85;58.60;101163.09;5013676;28;20496;-80
2021/09/10 00:20:32;;;;;;;0.10;0.10;;;;;;;23.85;58.78;101158.56;5010675;28;20041;-81
2021/09/10 00:22:58;;;;;;;0.55;0.55;;;;;;;23.87;58.68;101159.31;5013551;28;20096;-81
2021/09/10 00:25:25;;;;;;;0.10;0.10;;;;;;;23.89;58.71;101153.81;5013458;28;20256;-82
2021/09/10 00:27:51;;;;;;;0.25;0.25;;;;;;;23.92;58.50;101155.47;5014048;28;20014;-80
2021/09/10 00:30:18;;;;;;;0.05;0.05;;;;;;;23.92;59.13;101152.75;5010934;28;20025;-84
2021/09/10 00:32:44;;;;;;;0.10;0.10;;;;;;;23.93;58.57;101139.09;5013616;28;20103;-84
2021/09/10 00:35:11;;;;;;;0.03;0.03;;;;;;;23.95;58.95;101141.69;5012493;28;20029;-85
2021/09/10 00:37:38;;;;;;;0.20;0.20;;;;;;;23.92;59.60;101137.38;5010701;28;20026;-86
2021/09/10 00:40:06;;;;;;;0.08;0.08;;;;;;;23.95;58.82;101130.88;5013763;28;20053;-84
2021/09/10 00:42:33;;;;;;;0.20;0.20;;;;;;;23.96;58.96;101130.75;5013348;28;20041;-82
2021/09/10 00:45:00;;;;;;;0.43;0.40;;;;;;;23.98;58.95;101136.09;5012904;28;20484;-82
2021/09/10 00:47:29;;;;;;;0.73;0.45;;;;;;;24.00;58.98;101134.09;5014469;28;20064;-82
2021/09/10 00:49:56;;;;;;;1.17;0.80;;;;;;;24.01;58.75;101135.84;5013166;28;20033;-84
2021/09/10 00:52:23;;;;;;;0.70;0.70;;;;;;;24.00;58.96;101139.53;5010266;28;20038;-82
2021/09/10 00:54:51;;;;;;;1.92;1.27;;;;;;;23.96;59.40;101127.19;5014388;28;20041;-83
2021/09/10 00:57:18;;;;;;;0.20;0.20;;;;;;;23.90;59.14;101132.03;5013556;28;20022;-82
2021/09/10 00:59:45;;;;;;;0.40;0.40;;;;;;;23.83;59.35;101130.75;5009223;28;20037;-82
2021/09/10 01:02:12;;;;;;;0.10;0.10;;;;;;;23.76;59.40;101129.44;5008693;28;20022;-85
2021/09/10 01:04:41;;;;;;;0.15;0.15;;;;;;;23.70;59.09;101132.59;5010883;28;20026;-82
2021/09/10 01:07:09;;;;;;;0.20;0.20;;;;;;;23.62;59.97;101132.28;5012964;28;20026;-82
2021/09/10 01:09:37;;;;;;;0.32;0.32;;;;;;;23.55;60.08;101130.03;5013248;28;20034;-82
2021/09/10 01:12:05;;;;;;;0.17;0.17;;;;;;;23.51;60.37;101133.88;5012792;28;20384;-82
2021/09/10 01:14:32;;;;;;;0.10;0.10;;;;;;;23.48;60.26;101123.31;5012717;28;20030;-83
2021/09/10 01:17:00;;;;;;;0.10;0.10;;;;;;;23.46;60.28;101129.78;5009933;28;20555;-82
2021/09/10 01:19:30;;;;;;;0.10;0.10;;;;;;;23.48;60.21;101123.31;5013764;28;20877;-88
2021/09/10 01:22:00;;;;;;;0.20;0.20;;;;;;;23.46;60.46;101127.94;5013288;28;20022;-84
2021/09/10 01:24:32;;;;;;;0.10;0.10;;;;;;;23.40;60.36;101117.56;5011007;28;20126;-84
2021/09/10 01:26:59;;;;;;;;;;;;;;;23.48;60.40;101117.00;5013187;28;20520;-83
2021/09/10 01:29:27;;;;;;;0.13;0.13;;;;;;;23.31;60.54;101120.91;5012911;28;20351;-82
2021/09/10 01:31:54;;;;;;;0.55;0.55;;;;;;;23.27;60.49;101118.41;5011550;28;20121;-82
2021/09/10 01:34:21;;;;;;;1.45;0.32;;;;;;;23.22;60.88;101120.56;5012388;28;20365;-83
2021/09/10 01:36:48;;;;;;;0.30;0.30;;;;;;;23.21;60.70;101116.13;5011963;28;20084;-82
2021/09/10 01:39:15;;;;;;;0.10;0.10;;;;;;;23.19;60.60;101125.31;5009729;28;20022;-83
2021/09/10 01:41:41;;;;;;;0.40;0.40;;;;;;;23.14;60.65;101120.22;5009636;28;20084;-82
2021/09/10 01:44:09;;;;;;;0.50;0.50;;;;;;;23.13;60.66;101123.88;5011572;28;20045;-85
2021/09/10 01:46:36;;;;;;;0.30;0.30;;;;;;;23.09;60.55;101127.75;5009390;28;20088;-88
2021/09/10 01:49:03;;;;;;;0.10;0.10;;;;;;;23.06;60.63;101125.28;5012819;28;20038;-88
2021/09/10 01:51:32;;;;;;;0.30;0.30;;;;;;;23.04;60.62;101130.78;5012770;28;20040;-87
2021/09/10 01:53:59;;;;;;;0.30;0.30;;;;;;;23.05;60.49;101131.66;5012817;28;20081;-86
2021/09/10 01:56:26;;;;;;;0.10;0.10;;;;;;;23.00;60.80;101123.84;5012838;28;20030;-86
2021/09/10 01:58:53;;;;;;;0.57;0.57;;;;;;;22.98;60.69;101116.81;5010445;28;20358;-81
2021/09/10 02:01:26;;;;;;;1.45;1.02;;;;;;;22.99;61.01;101129.38;5014561;28;20061;-86
2021/09/10 02:03:53;;;;;;;0.05;0.05;;;;;;;22.92;61.17;101113.56;5013677;28;20076;-87
2021/09/10 02:06:20;;;;;;;0.77;0.77;;;;;;;22.90;61.19;101123.63;5016866;28;20545;-86
2021/09/10 02:08:46;;;;;;;0.93;0.93;;;;;;;22.91;60.91;101125.34;5016287;28;20026;-83
2021/09/10 02:11:13;;;;;;;0.10;0.10;;;;;;;22.93;61.31;101118.00;5013395;28;20469;-86
2021/09/10 02:13:40;;;;;;;0.20;0.20;;;;;;;22.98;61.35;101114.13;5014547;28;20125;-82
2021/09/10 02:16:07;;;;;;;0.10;0.10;;;;;;;22.97;61.30;101117.78;5015813;28;20026;-82
2021/09/10 02:18:35;;;;;;;0.10;0.10;;;;;;;22.98;61.32;101122.22;5013655;28;20034;-83
2021/09/10 02:21:02;;;;;;;0.10;0.10;;;;;;;22.98;61.66;101117.69;5015742;28;20030;-85
2021/09/10 02:23:29;;;;;;;0.15;0.15;;;;;;;22.99;61.86;101115.84;5016388;28;20025;-83
2021/09/10 02:25:56;;;;;;;0.10;0.10;;;;;;;23.01;61.90;101130.97;5015946;28;20034;-83
2021/09/10 02:28:24;;;;;;;0.20;0.20;;;;;;;23.04;61.90;101124.50;5015811;28;20026;-84
2021/09/10 02:30:52;;;;;;;0.10;0.10;;;;;;;23.08;62.00;101124.19;5015552;28;20033;-87
2021/09/10 02:33:19;;;;;;;1.63;1.52;;;;;;;23.11;62.21;101120.41;5015333;28;20026;-82
2021/09/10 02:35:45;;;;;;;0.10;0.10;;;;;;;23.14;62.02;101124.75;5015507;28;20117;-84
2021/09/10 02:38:12;;;;;;;0.40;0.40;;;;;;;23.16;61.88;101131.81;5014249;28;20481;-82
2021/09/10 02:40:40;;;;;;;0.30;0.30;;;;;;;23.19;61.91;101133.44;5015932;28;20489;-83
2021/09/10 02:43:07;;;;;;;0.50;0.50;;;;;;;23.20;61.73;101136.06;5016040;28;20117;-83
2021/09/10 02:45:34;;;;;;;0.10;0.10;;;;;;;23.22;61.78;101136.78;5016473;28;20022;-83
2021/09/10 02:48:00;;;;;;;1.10;1.10;;;;;;;23.20;62.38;101127.06;5016189;28;20113;-83
2021/09/10 02:50:26;;;;;;;0.10;0.10;;;;;;;23.21;62.16;101129.66;5015943;28;20481;-83
2021/09/10 02:52:53;;;;;;;1.08;1.08;;;;;;;23.19;62.24;101128.03;5015713;28;20033;-85
2021/09/10 02:55:19;;;;;;;0.32;0.32;;;;;;;23.18;62.01;101121.75;5014913;28;20080;-84
2021/09/10 02:57:47;;;;;;;1.95;0.65;;;;;;;23.22;62.08;101122.41;5014901;28;20029;-84
2021/09/10 03:00:14;;;;;;;1.35;0.80;;;;;;;23.20;62.47;101125.25;5014636;28;20034;-83
2021/09/10 03:02:40;;;;;;;0.50;0.50;;;;;;;23.24;62.62;101126.75;5014868;28;20033;-85
2021/09/10 03:05:08;;;;;;;0.35;0.35;;;;;;;23.27;62.27;101131.06;5015316;28;20042;-83
2021/09/10 03:07:35;;;;;;;0.15;0.15;;;;;;;23.29;62.74;101130.97;5014642;28;20452;-84
2021/09/10 03:10:03;;;;;;;0.10;0.10;;;;;;;23.27;63.18;101131.06;5015471;28;20030;-83
2021/09/10 03:12:29;;;;;;;1.20;0.55;;;;;;;23.32;62.91;101128.91;5015547;28;20030;-84
2021/09/10 03:14:56;;;;;;;0.77;0.77;;;;;;;23.27;63.87;101131.94;5014749;28;20026;-83
2021/09/10 03:17:22;;;;;;;0.10;0.10;;;;;;;23.32;62.85;101134.31;5011170;28;20083;-85
2021/09/10 03:19:49;;;;;;;0.10;0.10;;;;;;;23.32;63.88;101136.16;5015268;28;20030;-84
2021/09/10 03:22:15;;;;;;;0.30;0.30;;;;;;;23.34;63.57;101126.97;5015405;28;20030;-83
2021/09/10 03:24:41;;;;;;;0.52;0.52;;;;;;;23.37;63.72;101128.59;5015248;28;20069;-84
2021/09/10 03:27:20;;;;;;;0.35;0.35;;;;;;;23.37;64.36;101126.75;5015138;28;20025;-83
2021/09/10 03:29:53;;;;;;;0.30;0.30;;;;;;;23.38;64.19;101133.03;5014907;28;20164;-83
2021/09/10 03:32:35;;;;;;;0.52;0.52;;;;;;;23.44;63.82;101127.22;5012828;28;20038;-84
2021/09/10 03:35:06;;;;;;;0.40;0.40;;;;;;;23.43;63.63;101130.88;4995193;28;20026;-83
2021/09/10 03:37:33;;;;;;;0.40;0.40;;;;;;;23.39;64.11;101123.94;4995043;28;20066;-82
2021/09/10 03:39:59;;;;;;;0.63;0.63;;;;;;;23.39;63.86;101130.22;4995653;28;20518;-83
2021/09/10 03:42:26;;;;;;;0.40;0.40;;;;;;;23.38;64.32;101122.22;4995294;28;20077;-82
2021/09/10 03:44:52;;;;;;;0.22;0.22;;;;;;;23.40;64.20;101131.06;4995334;28;20027;-82
2021/09/10 03:47:19;;;;;;;0.32;0.32;;;;;;;23.38;64.11;101124.94;4995070;28;20056;-82
2021/09/10 03:49:45;;;;;;;0.55;0.55;;;;;;;23.42;63.85;101129.13;4995412;28;20037;-83
2021/09/10 03:52:11;;;;;;;1.35;1.25;;;;;;;23.36;64.55;101121.47;4995281;28;20034;-82
2021/09/10 03:54:38;;;;;;;0.15;0.15;;;;;;;23.39;63.98;101123.94;4995429;28;20405;-82
2021/09/10 03:57:04;;;;;;;0.40;0.40;;;;;;;23.40;64.25;101126.56;4995267;28;20030;-82
2021/09/10 03:59:30;;;;;;;0.25;0.25;;;;;;;23.45;63.55;101128.91;4995179;28;20026;-82
2021/09/10 04:01:56;;;;;;;0.52;0.52;;;;;;;23.43;63.73;101130.88;4995068;28;20130;-82
2021/09/10 04:04:23;;;;;;;0.52;0.50;;;;;;;23.43;63.99;101136.28;4995029;28;20378;-82
2021/09/10 04:06:49;;;;;;;0.60;0.60;;;;;;;23.42;63.93;101132.69;4995044;28;20030;-84
2021/09/10 04:09:15;;;;;;;0.30;0.30;;;;;;;23.40;64.33;101136.47;5006784;28;20038;-82
2021/09/10 04:11:41;;;;;;;0.10;0.10;;;;;;;23.43;64.01;101133.59;5012564;28;20480;-82
2021/09/10 04:14:08;;;;;;;0.17;0.17;;;;;;;23.40;63.84;101136.47;5014038;28;20061;-82
2021/09/10 04:16:34;;;;;;;0.35;0.35;;;;;;;23.42;63.76;101129.13;5014662;28;20034;-84
2021/09/10 04:19:01;;;;;;;0.40;0.40;;;;;;;23.48;63.09;101134.13;5013219;28;20060;-82
2021/09/10 04:21:27;;;;;;;0.25;0.25;;;;;;;23.48;63.68;101134.13;5013359;28;20385;-82
2021/09/10 04:23:54;;;;;;;0.10;0.10;;;;;;;23.38;64.16;101133.03;5004994;28;20428;-82
2021/09/10 04:26:21;;;;;;;1.45;1.02;;;;;;;23.44;63.64;101129.91;5014205;28;20026;-82
2021/09/10 04:28:48;;;;;;;0.20;0.20;;;;;;;23.42;63.83;101142.66;5014209;28;20038;-82
2021/09/10 04:31:15;;;;;;;0.20;0.20;;;;;;;23.42;63.54;101140.81;5014335;28;20056;-83
2021/09/10 04:33:43;;;;;;;0.70;0.70;;;;;;;23.37;63.86;101147.53;5013433;28;20030;-84
2021/09/10 04:36:10;;;;;;;0.55;0.55;;;;;;;23.36;63.96;101145.78;5013017;28;20030;-84
2021/09/10 04:38:36;;;;;;;0.73;0.73;;;;;;;23.30;63.71;101140.81;5012513;28;20042;-82
2021/09/10 04:41:03;;;;;;;3.65;2.10;;;;;;;23.33;63.79;101130.66;5013053;28;20468;-83
2021/09/10 04:43:29;;;;;;;0.10;0.10;;;;;;;23.28;64.40;101135.50;5013544;28;20481;-81
2021/09/10 04:45:55;;;;;;;1.75;1.65;;;;;;;23.32;63.83;101128.06;5014314;28;20061;-83
2021/09/10 04:48:21;;;;;;;0.20;0.20;;;;;;;23.35;63.59;101125.13;5014099;28;20418;-84
2021/09/10 04:50:47;;;;;;;0.10;0.10;;;;;;;23.36;63.68;101129.56;5012744;28;20033;-89
2021/09/10 04:53:14;;;;;;;0.30;0.30;;;;;;;23.35;63.57;101128.72;5014261;28;20367;-84
2021/09/10 04:55:40;;;;;;;0.30;0.30;;;;;;;23.34;63.71;101126.09;5013465;28;20034;-85
2021/09/10 04:58:06;;;;;;;0.38;0.38;;;;;;;23.34;63.91;101131.50;5013767;28;20030;-82
2021/09/10 05:00:32;;;;;;;0.10;0.10;;;;;;;23.31;63.40;101137.13;5013920;28;20053;-85
2021/09/10 05:02:59;;;;;;;0.40;0.40;;;;;;;23.36;63.61;101134.97;5013689;28;20057;-83
2021/09/10 05:05:26;;;;;;;1.08;1.05;;;;;;;23.36;63.82;101140.38;5012368;28;20388;-83
2021/09/10 05:07:53;;;;;;;0.22;0.22;;;;;;;23.34;64.10;101136.91;5012642;28;20400;-84
2021/09/10 05:10:19;;;;;;;0.10;0.10;;;;;;;23.35;63.68;101139.53;5013901;28;20114;-85
2021/09/10 05:12:47;;;;;;;0.40;0.40;;;;;;;23.31;64.47;101137.13;5013502;28;20547;-81
2021/09/10 05:15:14;;;;;;;0.63;0.63;;;;;;;23.31;64.10;101138.00;5013168;28;20030;-83
2021/09/10 05:17:40;;;;;;;0.17;0.17;;;;;;;23.32;63.86;101133.47;5013828;28;20033;-83
2021/09/10 05:20:08;;;;;;;0.47;0.47;;;;;;;23.34;63.67;101137.78;5013850;28;20030;-87
2021/09/10 05:22:35;;;;;;;0.47;0.47;;;;;;;23.36;63.51;101143.09;5013438;28;20026;-87
2021/09/10 05:25:01;;;;;;;0.20;0.20;;;;;;;23.37;63.60;101148.38;5013814;28;20026;-87
2021/09/10 05:27:28;;;;;;;0.10;0.10;;;;;;;23.39;63.68;101145.56;5013711;28;20030;-83
2021/09/10 05:29:54;;;;;;;0.30;0.30;;;;;;;23.39;63.71;101148.25;5012603;28;20440;-82
2021/09/10 05:32:20;;;;;;;0.65;0.57;;;;;;;23.40;63.67;101148.19;5012803;28;20041;-81
2021/09/10 05:34:47;;;;;;;0.50;0.50;;;;;;;23.36;63.55;101151.19;5000132;28;20042;-86
2021/09/10 05:37:13;;;;;;;0.30;0.30;;;;;;;23.39;63.88;101151.84;4999741;28;20029;-85
2021/09/10 05:39:39;;;;;;;0.75;0.75;;;;;;;23.41;63.66;101152.63;5017366;28;20374;-87
2021/09/10 05:42:05;;;;;;;0.32;0.32;;;;;;;23.39;63.86;101162.66;5017962;28;20470;-86
2021/09/10 05:44:31;;;;;;;0.73;0.73;;;;;;;23.33;63.59;101159.50;5017714;28;20041;-84
2021/09/10 05:46:57;;;;;;;0.20;0.20;;;;;;;23.31;63.69;101172.28;5020652;28;20026;-86
2021/09/10 05:49:24;;;;;;;0.17;0.17;;;;;;;23.22;64.27;101153.00;5016030;28;20436;-86
2021/09/10 05:51:50;;;;;;;0.10;0.10;;;;;;;23.21;64.16;101164.78;5015270;28;20049;-88
2021/09/10 05:54:16;;;;;;;1.55;0.68;;;;;;;23.18;64.38;101170.41;5019059;28;20030;-86
2021/09/10 05:56:42;;;;;;;0.90;0.60;;;;;;;23.16;64.34;101172.34;5017157;28;20574;-85
2021/09/10 05:59:11;;;;;;;1.40;1.27;;;;;;;23.09;64.38;101171.00;5015868;28;20045;-86
2021/09/10 06:01:37;;;;;;;0.10;0.10;;;;;;;23.08;64.14;101170.13;5016874;28;20030;-87
2021/09/10 06:04:20;;;;;;;0.90;0.90;;;;;;;22.99;65.04;101178.00;5016762;28;20112;-83
2021/09/10 06:06:46;;;;;;;7.13;2.63;;;;;;;23.09;64.20;101171.00;5016243;28;20374;-84
2021/09/10 06:09:12;;;;;;;1.27;0.80;;;;;;;23.08;64.54;101174.69;5019272;28;20033;-83
2021/09/10 06:11:39;;;;;;;0.20;0.20;;;;;;;23.09;64.23;101181.81;5023042;28;20081;-89
2021/09/10 06:14:05;;;;;;;0.40;0.40;;;;;;;23.04;64.80;101184.84;5008858;28;20027;-86
2021/09/10 06:16:34;;;;;;;0.88;0.88;;;;;;;23.13;64.08;101185.16;5020313;28;20049;-87
2021/09/10 06:19:00;;;;;;;0.65;0.65;;;;;;;23.04;64.28;101183.97;5027107;28;20033;-91
2021/09/10 06:21:26;;;;;;;0.85;0.65;;;;;;;23.15;64.30;101192.19;5030766;28;20030;-88
2021/09/10 06:23:58;;;;;;;0.20;0.20;;;;;;;23.19;64.15;101193.78;5024644;28;20099;-96
2021/09/10 06:26:27;;;;;;;0.65;0.45;;;;;;;23.19;64.17;101193.78;5020321;28;20087;-85
2021/09/10 06:28:53;;;;;;;9.18;1.80;;;;;;;23.22;64.27;101193.56;5023754;28;20085;-91
2021/09/10 06:31:22;;;;;;;0.10;0.10;;;;;;;23.30;63.99;101194.88;5023217;28;20030;-85
2021/09/10 06:33:54;;;;;;;0.30;0.30;;;;;;;23.26;64.23;101195.09;5019743;28;20041;-93
2021/09/10 06:36:20;;;;;;;0.85;0.85;;;;;;;23.26;63.93;101205.03;5025328;28;20037;-95
2021/09/10 06:38:49;;;;;;;0.52;0.52;;;;;;;23.17;64.42;101211.94;5019513;28;20484;-91
2021/09/10 06:41:19;;;;;;;1.60;1.13;;;;;;;23.31;63.96;101207.44;5023537;28;20576;-88
2021/09/10 06:43:45;;;;;;;0.20;0.20;;;;;;;23.33;63.66;101205.47;5024011;28;20034;-92
2021/09/10 06:46:11;;;;;;;0.77;0.77;;;;;;;23.35;64.30;101214.34;5014537;28;20033;-85
2021/09/10 06:48:37;;;;;;;0.40;0.40;;;;;;;23.40;64.10;101217.59;5013491;28;20038;-83
2021/09/10 06:51:07;;;;;;;0.10;0.10;;;;;;;23.57;63.81;101219.16;5013260;28;20481;-88
2021/09/10 06:53:35;;;;;;;0.10;0.10;;;;;;;23.63;63.68;101220.56;5012502;28;20057;-88
2021/09/10 06:56:01;;;;;;;0.70;0.68;;;;;;;23.67;63.52;101224.81;5011777;28;20045;-88
2021/09/10 06:58:28;;;;;;;0.30;0.30;;;;;;;23.71;63.58;101227.19;5013397;28;20704;-90
2021/09/10 07:00:54;;;;;;;0.10;0.10;;;;;;;23.80;63.25;101222.97;5012658;28;20381;-88
2021/09/10 07:03:20;;;;;;;0.10;0.10;;;;;;;23.81;62.88;101230.09;5013778;28;20136;-85
2021/09/10 07:05:46;;;;;;;0.03;0.03;;;;;;;23.83;62.93;101230.88;5014262;28;20113;-86
2021/09/10 07:08:13;;;;;;;2.83;0.45;;;;;;;23.89;62.85;101230.44;5013483;28;20045;-86
2021/09/10 07:10:43;;;;;;;0.30;0.30;;;;;;;23.86;62.69;101227.06;5013770;28;20026;-85
2021/09/10 07:13:09;;;;;;;0.60;0.60;;;;;;;23.91;62.55;101222.19;5013823;28;20029;-87
2021/09/10 07:15:35;;;;;;;0.80;0.35;;;;;;;23.95;62.44;101228.28;5013040;28;20121;-86
2021/09/10 07:18:01;;;;;;;0.10;0.10;;;;;;;23.98;62.36;101230.81;5012934;28;20717;-86
2021/09/10 07:20:27;;;;;;;0.10;0.10;;;;;;;24.04;62.36;101239.34;5013727;28;20034;-83
2021/09/10 07:22:54;;;;;;;0.10;0.10;;;;;;;24.11;62.16;101234.34;5012558;28;20366;-85
2021/09/10 07:25:20;;;;;;;0.30;0.30;;;;;;;24.20;62.01;101233.72;5013710;28;20030;-85
2021/09/10 07:27:49;;;;;;;0.20;0.20;;;;;;;24.19;61.75;101240.09;5013708;28;20072;-91
2021/09/10 07:30:15;;;;;;;0.40;0.40;;;;;;;24.28;61.88;101246.69;5006867;28;20131;-89
2021/09/10 07:32:41;;;;;;;0.73;0.73;;;;;;;24.35;61.61;101247.09;5014185;28;20030;-90
2021/09/10 07:35:08;;;;;;;0.10;0.10;;;;;;;24.40;61.28;101253.06;5013678;28;20034;-86
2021/09/10 07:37:37;;;;;;;0.30;0.30;;;;;;;24.25;60.95;101251.44;5013031;28;20060;-88
2021/09/10 07:40:05;;;;;;;0.10;0.10;;;;;;;24.30;61.12;101252.88;5014010;28;20026;-88
2021/09/10 07:42:31;;;;;;;0.43;0.43;;;;;;;24.34;60.64;101259.78;5014161;28;20512;-86
2021/09/10 07:44:57;;;;;;;0.25;0.25;;;;;;;24.40;60.82;101261.19;5014321;28;20485;-88
2021/09/10 07:47:23;;;;;;;0.85;0.85;;;;;;;24.43;60.65;101254.69;5016836;28;20038;-95
2021/09/10 07:49:49;;;;;;;0.43;0.43;;;;;;;24.35;60.40;101266.94;5017959;28;20058;-96
2021/09/10 07:52:15;;;;;;;0.63;0.55;;;;;;;24.23;60.47;101267.81;5013858;28;20041;-93
2021/09/10 07:54:42;;;;;;;0.57;0.40;;;;;;;24.22;60.03;101263.38;5014249;28;20503;-93
2021/09/10 07:57:08;;;;;;;1.00;0.95;;;;;;;24.31;60.49;101270.84;5016458;28;20025;-92
2021/09/10 07:59:34;;;;;;;0.20;0.20;;;;;;;24.36;60.50;101267.78;5013326;28;20026;-94
2021/09/10 08:02:00;;;;;;;3.85;1.13;;;;;;;24.45;60.37;101275.28;5014250;28;20068;-87
2021/09/10 08:04:26;;;;;;;0.43;0.43;;;;;;;24.46;60.04;101271.59;5012834;28;20473;-81
2021/09/10 08:06:56;;;;;;;0.20;0.20;;;;;;;24.60;59.79;101267.00;5013870;28;20061;-85
2021/09/10 08:09:22;;;;;;;0.40;0.40;;;;;;;24.68;59.52;101267.34;5013774;28;20060;-85
2021/09/10 08:11:48;;;;;;;0.10;0.10;;;;;;;24.83;59.13;101268.06;5013642;28;20048;-85
2021/09/10 08:14:14;;;;;;;0.10;0.10;;;;;;;24.85;58.75;101269.69;4999310;28;20438;-92
2021/09/10 08:16:43;;;;;;;0.40;0.40;;;;;;;25.01;59.16;101273.94;5005857;28;20057;-91
2021/09/10 08:19:09;;;;;;;0.22;0.22;;;;;;;25.07;59.01;101269.94;5013434;28;20049;-89
2021/09/10 08:21:35;;;;;;;0.20;0.20;;;;;;;25.27;58.55;101271.13;5013762;28;20096;-83
2021/09/10 08:24:01;;;;;;;0.17;0.17;;;;;;;25.37;58.32;101269.47;5013286;28;20032;-86
2021/09/10 08:26:31;;;;;;;0.17;0.17;;;;;;;25.55;58.25;101274.50;5013497;28;20030;-88
2021/09/10 08:28:57;;;;;;;0.55;0.47;;;;;;;25.61;57.72;101274.00;5010174;28;20038;-87
2021/09/10 08:31:23;;;;;;;0.77;0.45;;;;;;;25.59;57.80;101267.84;5012712;28;20026;-91
2021/09/10 08:33:49;;;;;;;1.30;0.80;;;;;;;25.60;57.72;101273.16;5012892;28;20022;-87
2021/09/10 08:36:15;;;;;;;0.15;0.15;;;;;;;25.64;57.73;101276.50;5012540;28;20021;-94
2021/09/10 08:38:48;;;;;;;0.22;0.22;;;;;;;25.64;58.14;101281.91;5012541;28;20034;-86
2021/09/10 08:41:16;;;;;;;0.15;0.15;;;;;;;25.69;57.89;101279.72;5010826;28;20036;-86
2021/09/10 08:43:47;;;;;;;0.20;0.20;;;;;;;25.79;57.80;101278.00;5012517;28;20725;-87
2021/09/10 08:46:13;;;;;;;0.65;0.65;;;;;;;25.90;57.40;101279.88;5012249;28;20061;-86
2021/09/10 08:48:58;;;;;;;0.22;0.22;;;;;;;26.18;57.56;101282.31;5013121;28;20037;-92
2021/09/10 08:51:29;;;;;;;0.30;0.30;;;;;;;26.27;57.12;101279.72;5012656;28;20429;-91
2021/09/10 08:53:55;;;;;;;0.10;0.10;;;;;;;26.38;56.47;101278.88;5012350;28;20036;-87
2021/09/10 08:59:07;;;;;;;0.10;0.10;;;;;;;26.87;55.59;101293.06;4993175;23;20461;-87
2021/09/10 09:01:33;;;;;;;0.10;0.10;;;;;;;27.08;55.04;101292.28;4993020;28;20387;-92
2021/09/10 09:04:06;;;;;;;0.10;0.10;;;;;;;27.07;54.00;101283.25;4996707;28;20105;-87
2021/09/10 09:06:34;;;;;;;0.82;0.50;;;;;;;27.16;53.87;101297.09;5012263;28;20103;-88
2021/09/10 09:09:01;;;;;;;0.40;0.40;;;;;;;27.17;54.39;101296.97;5012558;28;20018;-87
2021/09/10 09:11:29;;;;;;;0.10;0.10;;;;;;;26.95;54.33;101296.03;5016666;28;20066;-87
2021/09/10 09:13:56;;;;;;;0.20;0.20;;;;;;;26.97;53.71;101301.34;5016892;28;20362;-88
2021/09/10 09:16:31;;;;;;;2.63;0.75;;;;;;;26.95;53.21;101297.88;5016324;28;20026;-89
2021/09/10 09:19:07;;;;;;;0.20;0.20;;;;;;;26.79;53.03;101296.41;5017743;28;20030;-88
2021/09/10 09:21:38;;;;;;;0.82;0.82;;;;;;;26.85;53.49;101302.34;5016619;28;20034;-91
2021/09/10 09:24:24;;;;;;;0.10;0.10;;;;;;;26.84;53.53;101312.34;5016442;28;20026;-93
2021/09/10 09:26:52;;;;;;;0.30;0.30;;;;;;;26.75;53.18;101305.78;5016444;28;20080;-88
2021/09/10 09:29:22;;;;;;;0.30;0.20;;;;;;;26.87;53.24;101306.66;5016544;28;20030;-89
2021/09/10 09:32:05;;;;;;;0.10;0.10;;;;;;;26.88;53.27;101310.22;5016270;28;20022;-89
2021/09/10 09:34:51;;;;;;;1.00;1.00;;;;;;;26.61;53.35;101311.47;5016375;28;20489;-89
2021/09/10 09:37:24;;;;;;;0.10;0.10;;;;;;;26.70;53.08;101308.00;5015957;28;20480;-88
2021/09/10 09:40:00;;;;;;;0.40;0.40;;;;;;;26.70;53.30;101310.72;5015780;28;20500;-92
2021/09/10 09:42:31;;;;;;;0.32;0.32;;;;;;;26.57;53.04;101312.72;4996708;28;20118;-92
2021/09/10 09:45:22;;;;;;;0.20;0.20;;;;;;;26.88;53.87;101315.66;4999072;28;20041;-88
2021/09/10 09:47:48;;;;;;;1.27;0.60;;;;;;;26.85;53.51;101314.06;5005519;28;20414;-90
2021/09/10 09:50:17;;;;;;;0.10;0.10;;;;;;;26.86;52.71;101323.09;5014119;28;20120;-87
2021/09/10 09:52:51;;;;;;;1.08;0.95;;;;;;;27.08;52.59;101319.50;5022020;28;20101;-86
2021/09/10 09:55:18;;;;;;;0.10;0.10;;;;;;;27.03;52.61;101321.69;5023723;22;20113;-84
2021/09/10 09:57:44;;;;;;;0.22;0.22;;;;;;;27.10;52.08;101323.81;4995320;28;20044;-83
2021/09/10 10:00:11;;;;;;;0.40;0.40;;;;;;;27.17;52.33;101313.28;4995393;28;20541;-83
2021/09/10 10:02:38;;;;;;;0.20;0.20;;;;;;;27.32;52.52;101318.44;4995404;28;20409;-82
2021/09/10 10:05:07;;;;;;;0.35;0.35;;;;;;;27.35;52.26;101319.00;4995330;28;20061;-83
2021/09/10 10:07:56;;;;;;;0.20;0.20;;;;;;;27.53;51.91;101326.69;4995441;28;20034;-82
2021/09/10 10:10:26;;;;;;;0.13;0.13;;;;;;;27.19;51.16;101318.56;4995038;28;20062;-83
2021/09/10 10:12:55;;;;;;;0.38;0.38;;;;;;;27.34;50.93;101322.75;4989163;28;20409;-82
2021/09/10 10:15:25;;;;;;;0.15;0.15;;;;;;;27.44;51.33;101321.00;4988419;28;20449;-83
2021/09/10 10:17:53;;;;;;;0.43;0.43;;;;;;;27.51;51.39;101321.34;4989075;28;20022;-83
2021/09/10 10:20:48;;;;;;;0.30;0.30;;;;;;;27.74;51.04;101316.66;4988263;28;20121;-83
2021/09/10 10:26:39;;;;;;;0.20;0.20;;;;;;;27.84;50.91;101315.88;5062595;28;20759;-83
2021/09/10 10:29:11;;;;;;;0.30;0.30;;;;;;;27.85;50.38;101320.31;5063073;28;20037;-83
2021/09/10 10:31:58;;;;;;;0.65;0.65;;;;;;;27.72;50.66;101323.25;5063163;28;20033;-80
2021/09/10 10:34:26;;;;;;;0.10;0.10;;;;;;;27.76;50.09;101319.25;5075712;28;20123;-89
2021/09/10 10:36:53;;;;;;;0.40;0.30;;;;;;;27.73;50.74;101320.38;5082388;28;20064;-81
2021/09/10 10:39:36;;;;;;;0.40;0.40;;;;;;;27.72;50.32;101329.53;5052861;28;20380;-84
2021/09/10 10:42:06;;;;;;;0.63;0.63;;;;;;;27.89;50.04;101325.38;5062044;28;20422;-85
2021/09/10 10:47:20;;;;;;;0.30;0.30;;;;;;;28.00;49.98;101321.75;5066260;27;20533;-87
2021/09/10 10:49:49;;;;;;;0.20;0.20;;;;;;;27.97;49.87;101330.16;5059175;28;20036;-84
2021/09/10 10:52:40;;;;;;;1.20;1.15;;;;;;;28.08;50.24;101323.81;5049101;28;20116;-85
2021/09/10 10:58:15;;;;;;;0.40;0.40;;;;;;;28.00;49.87;101329.91;5052463;27;20486;-86
2021/09/10 11:06:29;;;;;;;0.45;0.45;;;;;;;27.91;50.27;101322.50;5050392;28;20572;-86
2021/09/10 11:08:55;;;;;;;0.60;0.38;;;;;;;27.86;49.57;101317.47;5043283;28;20030;-85
2021/09/10 11:11:26;;;;;;;0.10;0.10;;;;;;;27.92;48.92;101311.47;5042419;28;20040;-84
2021/09/10 11:13:53;;;;;;;0.20;0.20;;;;;;;28.26;48.93;101313.16;5041127;28;20037;-86
2021/09/10 11:16:28;;;;;;;0.10;0.10;;;;;;;28.37;48.46;101309.50;5030102;28;20026;-85
2021/09/10 11:18:54;;;;;;;0.88;0.55;;;;;;;28.26;48.79;101304.97;5030411;28;20113;-83
2021/09/10 11:21:27;;;;;;;0.60;0.60;;;;;;;28.28;47.93;101302.16;5029870;28;20025;-86
2021/09/10 11:23:53;;;;;;;0.93;0.93;;;;;;;28.47;47.21;101294.03;5074055;22;20033;-86
2021/09/10 11:26:32;;;;;;;0.30;0.30;;;;;;;28.36;46.73;101297.75;5056980;28;20036;-88
2021/09/10 11:29:20;;;;;;;0.40;0.40;;;;;;;28.72;46.90;101295.47;5055519;28;20021;-88
2021/09/10 11:31:47;;;;;;;0.22;0.22;;;;;;;28.60;47.08;101296.53;5059391;28;20037;-86
2021/09/10 11:34:56;;;;;;;0.10;0.10;;;;;;;28.56;47.45;101301.41;5057267;28;20064;-89
2021/09/10 11:37:36;;;;;;;0.20;0.20;;;;;;;28.26;47.11;101299.53;5051588;28;20048;-90
2021/09/10 11:40:08;;;;;;;0.38;0.38;;;;;;;28.08;47.72;101294.72;5045436;28;20033;-89
2021/09/10 11:42:38;;;;;;;0.25;0.25;;;;;;;27.83;48.52;101293.22;5046967;28;20055;-88
2021/09/10 11:45:15;;;;;;;0.30;0.30;;;;;;;27.71;47.97;101295.13;5048100;28;20040;-89
2021/09/10 11:48:05;;;;;;;;;;;;;;;;;;;;;
2021/09/10 11:51:03;;;;;;;0.15;0.15;;;;;;;28.07;48.15;101284.81;5042579;28;20041;-86